CPX991 Details

Departure: Schiphol International Airport (EHAM)
Arrival: Liège Airport (EBLG) at N/A
Notes: EMPTY | NON-REVENUE REPOSITIONING LEG


Current Weather Information
EHAM 231155Z 06008KT 9999 -DZ NSC 13/11 Q1015 NOSIG
EBLG 231150Z 02004KT CAVOK 15/12 Q1013 NOSIG